createdAt,value
2023-04-13T00:01:32.840Z,6.74
2023-04-13T00:04:03.858Z,6.68
2023-04-13T00:06:34.358Z,6.68
2023-04-13T00:09:03.643Z,6.63
2023-04-13T00:11:32.491Z,6.59
2023-04-13T00:14:01.476Z,6.56
2023-04-13T00:16:31.706Z,6.60
2023-04-13T00:19:02.092Z,6.62
2023-04-13T00:21:30.945Z,6.50
2023-04-13T00:24:01.643Z,6.42
2023-04-13T00:26:30.549Z,6.34
2023-04-13T00:28:59.650Z,6.41
2023-04-13T00:31:29.591Z,6.40
2023-04-13T00:33:58.919Z,6.34
2023-04-13T00:36:30.280Z,6.27
2023-04-13T00:39:00.780Z,6.25
2023-04-13T00:41:29.583Z,6.31
2023-04-13T00:43:59.254Z,6.29
2023-04-13T00:46:30.559Z,6.21
2023-04-13T00:49:02.123Z,6.22
2023-04-13T00:51:33.148Z,6.15
2023-04-13T00:54:03.580Z,6.18
2023-04-13T00:56:33.852Z,6.18
2023-04-13T00:59:03.586Z,6.13
2023-04-13T01:01:32.553Z,6.10
2023-04-13T01:04:01.907Z,6.07
2023-04-13T01:06:42.193Z,6.05
2023-04-13T01:09:25.979Z,6.00
2023-04-13T01:12:04.258Z,5.98
2023-04-13T01:14:43.071Z,6.00
2023-04-13T01:17:25.685Z,6.02
2023-04-13T01:20:01.541Z,5.93
2023-04-13T01:22:36.672Z,5.91
2023-04-13T01:25:36.827Z,5.92
2023-04-13T01:28:10.453Z,5.90
2023-04-13T01:30:42.586Z,5.89
2023-04-13T01:33:14.050Z,5.89
2023-04-13T01:35:44.680Z,5.89
2023-04-13T01:38:17.474Z,5.88
2023-04-13T01:40:46.500Z,5.90
2023-04-13T01:43:18.310Z,5.91
2023-04-13T01:46:04.979Z,5.89
2023-04-13T01:48:46.636Z,5.91
2023-04-13T01:51:37.399Z,5.87
2023-04-13T01:54:14.806Z,5.86
2023-04-13T01:56:48.268Z,5.89
2023-04-13T01:59:19.380Z,5.86
2023-04-13T02:01:48.839Z,5.83
2023-04-13T02:04:17.690Z,5.84
2023-04-13T02:06:48.318Z,5.80
2023-04-13T02:09:17.217Z,5.72
2023-04-13T02:11:46.287Z,5.70
2023-04-13T02:14:15.699Z,5.69
2023-04-13T02:16:47.461Z,5.72
2023-04-13T02:19:16.670Z,5.73
2023-04-13T02:21:46.183Z,5.68
2023-04-13T02:24:15.469Z,5.67
2023-04-13T02:26:44.718Z,5.63
2023-04-13T02:29:13.498Z,5.59
2023-04-13T02:31:45.236Z,5.57
2023-04-13T02:34:15.461Z,5.54
2023-04-13T02:36:45.334Z,5.50
2023-04-13T02:39:14.355Z,5.47
2023-04-13T02:41:43.641Z,5.43
2023-04-13T02:44:18.367Z,5.44
2023-04-13T02:46:55.394Z,5.42
2023-04-13T02:49:25.674Z,5.40
2023-04-13T02:52:17.632Z,5.38
2023-04-13T02:55:00.658Z,5.39
2023-04-13T02:57:35.490Z,5.40
2023-04-13T03:00:10.746Z,5.38
2023-04-13T03:02:48.506Z,5.43
2023-04-13T03:05:21.438Z,5.37
2023-04-13T03:07:50.542Z,5.36
2023-04-13T03:10:20.152Z,5.37
2023-04-13T03:12:50.511Z,5.33
2023-04-13T03:15:19.703Z,5.36
2023-04-13T03:17:49.155Z,5.29
2023-04-13T03:20:24.440Z,5.25
2023-04-13T03:22:58.801Z,5.25
2023-04-13T03:25:31.863Z,5.21
2023-04-13T03:28:02.444Z,5.20
2023-04-13T03:30:37.073Z,5.14
2023-04-13T03:33:06.186Z,5.15
2023-04-13T03:35:39.597Z,5.16
2023-04-13T03:38:15.678Z,5.14
2023-04-13T03:40:46.837Z,5.17
2023-04-13T03:43:17.275Z,5.17
2023-04-13T03:45:52.208Z,5.17
2023-04-13T03:48:21.837Z,5.18
2023-04-13T03:50:52.230Z,5.16
2023-04-13T03:53:28.188Z,5.14
2023-04-13T03:55:58.515Z,5.12
2023-04-13T03:58:27.809Z,5.17
2023-04-13T04:00:56.902Z,5.19
2023-04-13T04:03:38.779Z,5.24
2023-04-13T04:06:12.162Z,5.30
2023-04-13T04:08:46.868Z,5.38
2023-04-13T04:11:28.674Z,5.48
2023-04-13T04:13:59.275Z,5.55
2023-04-13T04:16:28.776Z,5.65
2023-04-13T04:19:05.955Z,5.69
2023-04-13T04:21:36.436Z,5.74
2023-04-13T04:24:12.476Z,5.87
2023-04-13T04:26:50.388Z,5.98
2023-04-13T04:29:22.317Z,6.10
2023-04-13T04:31:56.215Z,6.17
2023-04-13T04:34:26.249Z,6.25
2023-04-13T04:37:00.211Z,6.36
2023-04-13T04:39:35.438Z,6.48
2023-04-13T04:42:12.834Z,6.55
2023-04-13T04:44:44.632Z,6.68
2023-04-13T04:47:17.016Z,6.77
2023-04-13T04:50:03.510Z,6.82
2023-04-13T04:52:38.764Z,6.90
2023-04-13T04:55:09.175Z,7.00
2023-04-13T04:57:41.093Z,7.14
2023-04-13T05:00:15.616Z,7.25
2023-04-13T05:02:50.926Z,7.38
2023-04-13T05:05:20.955Z,7.46
2023-04-13T05:07:52.478Z,7.53
2023-04-13T05:10:24.579Z,7.56
2023-04-13T05:12:57.092Z,7.66
2023-04-13T05:15:28.389Z,7.73
2023-04-13T05:17:58.161Z,7.78
2023-04-13T05:20:30.406Z,7.80
2023-04-13T05:23:05.910Z,7.82
2023-04-13T05:25:40.617Z,7.84
2023-04-13T05:28:17.851Z,7.90
2023-04-13T05:30:48.034Z,7.99
2023-04-13T05:33:18.090Z,8.13
2023-04-13T05:35:50.794Z,8.19
2023-04-13T05:38:20.937Z,8.34
2023-04-13T05:40:50.004Z,8.43
2023-04-13T05:43:21.868Z,8.53
2023-04-13T05:45:53.458Z,8.64
2023-04-13T05:48:23.749Z,8.73
2023-04-13T05:50:59.214Z,8.86
2023-04-13T05:53:33.315Z,8.95
2023-04-13T05:56:03.594Z,9.13
2023-04-13T05:58:34.665Z,9.30
2023-04-13T06:01:33.671Z,9.59
2023-04-13T06:04:03.686Z,9.85
2023-04-13T06:06:36.011Z,10.04
2023-04-13T06:09:06.655Z,10.26
2023-04-13T06:11:35.697Z,10.45
2023-04-13T06:14:04.473Z,10.60
2023-04-13T06:16:33.707Z,10.80
2023-04-13T06:19:03.167Z,10.98
2023-04-13T06:21:35.387Z,11.09
2023-04-13T06:24:05.871Z,11.23
2023-04-13T06:26:38.474Z,11.41
2023-04-13T06:29:07.523Z,11.52
2023-04-13T06:31:45.126Z,11.67
2023-04-13T06:34:17.990Z,11.73
2023-04-13T06:36:48.059Z,11.85
2023-04-13T06:39:20.626Z,11.98
2023-04-13T06:41:57.831Z,12.00
2023-04-13T06:44:45.197Z,12.11
2023-04-13T06:47:14.251Z,12.13
2023-04-13T06:49:46.005Z,12.21
2023-04-13T06:52:15.300Z,12.36
2023-04-13T06:54:45.593Z,12.49
2023-04-13T06:57:27.666Z,12.71
2023-04-13T06:59:56.659Z,12.84
2023-04-13T07:02:27.061Z,12.94
2023-04-13T07:04:57.428Z,12.95
2023-04-13T07:07:26.745Z,13.11
2023-04-13T07:10:00.494Z,13.61
2023-04-13T07:12:30.341Z,13.95
2023-04-13T07:14:59.277Z,13.97
2023-04-13T07:17:30.645Z,14.05
2023-04-13T07:19:59.556Z,14.06
2023-04-13T07:22:33.648Z,14.06
2023-04-13T07:25:04.352Z,14.22
2023-04-13T07:27:34.607Z,14.36
2023-04-13T07:30:03.585Z,14.26
2023-04-13T07:32:39.146Z,14.35
2023-04-13T07:35:08.733Z,14.25
2023-04-13T07:37:39.853Z,14.30
2023-04-13T07:40:13.200Z,14.41
2023-04-13T07:42:47.318Z,14.71
2023-04-13T07:45:18.022Z,14.92
2023-04-13T07:47:47.982Z,15.12
2023-04-13T07:50:18.026Z,15.01
2023-04-13T07:52:48.110Z,15.10
2023-04-13T07:55:20.780Z,15.18
2023-04-13T07:57:51.351Z,15.41
2023-04-13T08:00:23.064Z,15.41
2023-04-13T08:02:58.342Z,15.58
2023-04-13T08:05:29.348Z,15.53
2023-04-13T08:07:59.181Z,15.56
2023-04-13T08:10:30.150Z,15.57
2023-04-13T08:13:01.412Z,15.51
2023-04-13T08:15:30.259Z,15.51
2023-04-13T08:17:59.860Z,15.70
2023-04-13T08:20:30.995Z,15.66
2023-04-13T08:23:01.164Z,15.83
2023-04-13T08:25:31.889Z,15.88
2023-04-13T08:28:02.132Z,16.05
2023-04-13T08:30:34.196Z,16.11
2023-04-13T08:33:05.304Z,15.83
2023-04-13T08:35:34.266Z,16.05
2023-04-13T08:38:04.357Z,15.99
2023-04-13T08:40:39.538Z,15.94
2023-04-13T08:43:13.253Z,16.23
2023-04-13T08:45:43.588Z,16.67
2023-04-13T08:48:15.216Z,16.60
2023-04-13T09:26:03.321Z,18.81
2023-04-13T09:28:33.871Z,18.92
2023-04-13T09:31:06.544Z,19.50
2023-04-13T09:33:46.229Z,19.98
2023-04-13T09:36:17.191Z,20.38
2023-04-13T09:38:46.681Z,20.58
2023-04-13T09:41:15.841Z,20.51
2023-04-13T09:43:46.284Z,20.57
2023-04-13T09:46:16.237Z,20.66
2023-04-13T09:48:45.753Z,20.57
2023-04-13T09:51:14.505Z,20.62
2023-04-13T09:53:46.467Z,20.65
2023-04-13T09:56:16.098Z,20.66
2023-04-13T09:58:48.828Z,20.87
2023-04-13T10:01:18.973Z,20.98
2023-04-13T10:03:48.372Z,20.98
2023-04-13T10:06:17.761Z,21.00
2023-04-13T10:08:47.028Z,21.09
2023-04-13T10:11:17.534Z,21.48
2023-04-13T10:13:56.108Z,21.95
2023-04-13T10:17:05.303Z,22.59
2023-04-13T10:19:41.270Z,23.06
2023-04-13T10:22:12.374Z,23.32
2023-04-13T10:24:41.863Z,23.63
2023-04-13T10:27:17.887Z,23.92
2023-04-13T10:29:50.009Z,23.97
2023-04-13T10:32:23.945Z,23.87
2023-04-13T10:34:53.522Z,24.41
2023-04-13T10:37:27.412Z,24.32
2023-04-13T10:40:06.765Z,24.48
2023-04-13T10:42:52.352Z,23.83
2023-04-13T10:45:26.853Z,23.60
2023-04-13T10:47:58.682Z,23.28
2023-04-13T10:50:28.406Z,23.06
2023-04-13T10:53:04.868Z,23.14
2023-04-13T10:55:35.447Z,22.86
2023-04-13T10:58:16.304Z,22.21
2023-04-13T11:00:48.403Z,22.25
2023-04-13T11:03:19.228Z,22.36
2023-04-13T11:05:49.859Z,22.42
2023-04-13T11:08:20.683Z,22.34
2023-04-13T11:10:54.595Z,22.52
2023-04-13T11:13:26.764Z,22.62
2023-04-13T11:16:04.506Z,22.75
2023-04-13T11:18:33.663Z,22.98
2023-04-13T11:21:06.046Z,23.44
2023-04-13T11:23:37.376Z,24.04
2023-04-13T11:26:06.859Z,24.52
2023-04-13T11:28:40.955Z,24.70
2023-04-13T11:31:12.115Z,24.49
2023-04-13T11:33:41.338Z,24.56
2023-04-13T11:36:11.888Z,24.29
2023-04-13T11:38:42.269Z,24.30
2023-04-13T11:41:16.947Z,24.72
2023-04-13T11:43:48.453Z,24.68
2023-04-13T11:46:25.772Z,24.68
2023-04-13T11:48:56.065Z,24.54
2023-04-13T11:51:26.675Z,24.12
2023-04-13T11:53:56.272Z,23.65
2023-04-13T11:56:25.918Z,23.25
2023-04-13T11:58:55.350Z,22.57
2023-04-13T12:01:32.351Z,21.81
2023-04-13T12:06:45.932Z,20.57
2023-04-13T12:09:18.045Z,19.74
2023-04-13T12:12:08.017Z,19.80
2023-04-13T12:19:51.806Z,19.32
2023-04-13T12:22:21.704Z,19.17
2023-04-13T12:24:51.176Z,18.83
2023-04-13T12:27:20.263Z,18.82
2023-04-13T12:29:49.248Z,18.77
2023-04-13T12:32:19.612Z,18.56
2023-04-13T12:34:49.020Z,18.73
2023-04-13T12:37:18.132Z,18.74
2023-04-13T12:39:46.926Z,18.78
2023-04-13T12:42:16.172Z,18.74
2023-04-13T12:44:45.199Z,18.77
2023-04-13T12:47:14.208Z,18.58
2023-04-13T12:49:44.520Z,18.50
2023-04-13T12:52:13.617Z,18.55
2023-04-13T12:54:42.323Z,18.37
2023-04-13T12:57:11.334Z,18.27
2023-04-13T12:59:40.063Z,18.32
2023-04-13T13:02:09.125Z,18.31
2023-04-13T13:04:37.934Z,18.31
2023-04-13T13:07:08.722Z,18.12
2023-04-13T13:09:37.414Z,18.13
2023-04-13T13:12:07.015Z,18.38
2023-04-13T13:14:36.013Z,18.47
2023-04-13T13:17:05.119Z,18.51
2023-04-13T13:19:33.965Z,18.61
2023-04-13T13:22:03.280Z,18.58
2023-04-13T13:24:33.554Z,18.53
2023-04-13T13:27:37.433Z,18.35
2023-04-13T13:29:51.484Z,18.67
2023-04-13T13:32:20.868Z,18.73
2023-04-13T13:34:49.698Z,18.82
2023-04-13T13:37:18.745Z,19.00
2023-04-13T13:39:48.900Z,19.02
2023-04-13T13:42:17.926Z,18.95
2023-04-13T13:44:46.711Z,18.96
2023-04-13T13:47:15.980Z,19.02
2023-04-13T13:49:50.418Z,19.06
2023-04-13T13:52:40.238Z,19.23
2023-04-13T13:55:19.529Z,19.20
2023-04-13T13:57:49.001Z,19.01
2023-04-13T14:00:19.754Z,19.12
2023-04-13T14:02:49.457Z,18.80
2023-04-13T14:05:18.272Z,19.00
2023-04-13T14:07:47.728Z,19.13
2023-04-13T14:10:18.019Z,19.22
2023-04-13T14:12:50.466Z,19.25
2023-04-13T14:15:19.885Z,19.28
2023-04-13T14:18:02.468Z,19.48
2023-04-13T14:20:40.020Z,19.16
2023-04-13T14:23:10.101Z,19.09
2023-04-13T14:25:41.267Z,19.09
2023-04-13T14:28:11.598Z,18.96
2023-04-13T14:30:41.169Z,18.96
2023-04-13T14:33:10.334Z,18.80
2023-04-13T14:35:39.807Z,18.32
2023-04-13T14:38:09.700Z,18.57
2023-04-13T14:40:40.019Z,18.59
2023-04-13T14:43:09.112Z,18.61
2023-04-13T14:45:37.906Z,18.63
2023-04-13T14:48:07.553Z,18.74
2023-04-13T14:50:39.313Z,18.76
2023-04-13T14:53:09.470Z,18.75
2023-04-13T14:55:38.238Z,18.70
2023-04-13T14:58:08.683Z,18.76
2023-04-13T15:00:40.265Z,18.69
2023-04-13T15:03:11.394Z,18.78
2023-04-13T15:05:41.263Z,18.75
2023-04-13T15:08:11.816Z,18.72
2023-04-13T15:10:42.422Z,18.74
2023-04-13T15:13:13.127Z,18.73
2023-04-13T15:15:42.054Z,18.81
2023-04-13T15:18:11.324Z,18.82
2023-04-13T15:20:40.282Z,18.71
2023-04-13T15:23:09.417Z,18.67
2023-04-13T15:25:39.161Z,18.63
2023-04-13T15:28:08.359Z,18.62
2023-04-13T15:30:38.630Z,18.55
2023-04-13T15:33:07.984Z,18.54
2023-04-13T15:35:37.252Z,18.52
2023-04-13T15:38:06.471Z,18.61
2023-04-13T15:40:36.370Z,18.53
2023-04-13T15:43:06.547Z,18.52
2023-04-13T15:45:35.765Z,18.53
2023-04-13T15:48:07.216Z,18.49
2023-04-13T15:50:36.290Z,18.47
2023-04-13T15:53:05.843Z,18.42
2023-04-13T15:55:35.727Z,18.25
2023-04-13T15:58:04.834Z,18.30
2023-04-13T16:00:33.620Z,18.26
2023-04-13T16:03:02.909Z,18.03
2023-04-13T16:05:33.430Z,18.12
2023-04-13T16:08:02.834Z,18.16
2023-04-13T16:10:31.735Z,18.13
2023-04-13T16:13:02.821Z,18.04
2023-04-13T16:15:31.587Z,18.04
2023-04-13T16:18:00.652Z,17.90
2023-04-13T16:20:29.707Z,17.88
2023-04-13T16:23:03.761Z,17.84
2023-04-13T16:25:33.233Z,17.72
2023-04-13T16:28:03.024Z,17.61
2023-04-13T16:30:32.280Z,17.53
2023-04-13T16:33:02.285Z,17.45
2023-04-13T16:35:31.817Z,17.41
2023-04-13T16:38:02.236Z,17.35
2023-04-13T16:40:31.458Z,17.27
2023-04-13T16:43:01.744Z,17.17
2023-04-13T16:45:30.454Z,17.06
2023-04-13T16:47:59.564Z,16.97
2023-04-13T16:50:31.445Z,16.83
2023-04-13T16:53:02.637Z,16.67
2023-04-13T16:55:31.492Z,16.56
2023-04-13T16:58:00.474Z,16.43
2023-04-13T17:00:29.396Z,16.34
2023-04-13T17:02:58.463Z,16.23
2023-04-13T17:05:28.523Z,16.11
2023-04-13T17:07:57.539Z,16.00
2023-04-13T17:10:27.783Z,15.89
2023-04-13T17:12:57.450Z,15.74
2023-04-13T17:15:26.368Z,15.67
2023-04-13T17:17:55.563Z,15.53
2023-04-13T17:20:24.623Z,15.40
2023-04-13T17:22:54.198Z,15.28
2023-04-13T17:25:22.881Z,15.17
2023-04-13T17:27:53.460Z,15.10
2023-04-13T17:30:22.674Z,15.00
2023-04-13T17:32:51.949Z,14.90
2023-04-13T17:35:21.434Z,14.78
2023-04-13T17:37:50.790Z,14.68
2023-04-13T17:40:20.584Z,14.61
2023-04-13T17:42:50.229Z,14.49
2023-04-13T17:45:20.387Z,14.40
2023-04-13T17:47:49.526Z,14.32
2023-04-13T17:50:18.490Z,14.22
2023-04-13T17:52:47.760Z,14.13
2023-04-13T17:55:16.624Z,14.06
2023-04-13T17:57:45.807Z,13.96
2023-04-13T18:00:16.377Z,13.86
2023-04-13T18:02:50.385Z,13.69
2023-04-13T18:05:19.435Z,13.56
2023-04-13T18:07:48.485Z,13.47
2023-04-13T18:10:17.261Z,13.43
2023-04-13T18:12:46.239Z,13.40
2023-04-13T18:15:14.987Z,13.35
2023-04-13T18:17:44.015Z,13.37
2023-04-13T18:20:14.460Z,13.32
2023-04-13T18:22:43.621Z,13.31
2023-04-13T18:25:12.296Z,13.26
2023-04-13T18:27:41.787Z,13.22
2023-04-13T18:30:13.042Z,13.18
2023-04-13T18:32:42.074Z,13.14
2023-04-13T18:35:13.368Z,13.08
2023-04-13T18:37:42.339Z,13.02
2023-04-13T18:40:12.433Z,12.95
2023-04-13T18:42:42.058Z,12.90
2023-04-13T18:45:12.133Z,12.86
2023-04-13T18:47:41.183Z,12.82
2023-04-13T18:50:11.879Z,12.76
2023-04-13T18:52:42.146Z,12.70
2023-04-13T18:55:11.244Z,12.62
2023-04-13T18:57:41.710Z,12.57
2023-04-13T19:00:11.656Z,12.49
2023-04-13T19:02:42.213Z,12.47
2023-04-13T19:05:13.426Z,12.45
2023-04-13T19:07:45.751Z,12.41
2023-04-13T19:10:14.383Z,12.41
2023-04-13T19:12:43.380Z,12.40
2023-04-13T19:15:12.852Z,12.46
2023-04-13T19:17:42.053Z,12.48
2023-04-13T19:20:13.404Z,12.60
2023-04-13T19:22:44.045Z,12.65
2023-04-13T19:25:15.359Z,12.75
2023-04-13T19:27:46.221Z,12.82
2023-04-13T19:30:16.826Z,12.83
2023-04-13T19:32:48.971Z,12.87
2023-04-13T19:35:18.620Z,12.87
2023-04-13T19:37:49.289Z,12.88
2023-04-13T19:40:17.961Z,12.90
2023-04-13T19:42:48.369Z,12.92
2023-04-13T19:45:17.326Z,12.90
2023-04-13T19:47:47.006Z,12.92
2023-04-13T19:50:16.709Z,12.90
2023-04-13T19:52:47.470Z,12.89
2023-04-13T19:55:17.634Z,12.90
2023-04-13T19:57:46.552Z,12.79
2023-04-13T20:00:20.610Z,12.84
2023-04-13T20:02:52.508Z,12.84
2023-04-13T20:05:22.477Z,12.85
2023-04-13T20:07:51.405Z,12.89
2023-04-13T20:10:21.472Z,12.94
2023-04-13T20:12:50.733Z,12.94
2023-04-13T20:15:19.489Z,12.97
2023-04-13T20:17:51.314Z,12.97
2023-04-13T20:20:21.861Z,12.98
2023-04-13T20:22:52.841Z,13.03
2023-04-13T20:25:22.931Z,13.02
2023-04-13T20:27:51.868Z,13.02
2023-04-13T20:30:20.759Z,12.99
2023-04-13T20:32:49.850Z,12.95
2023-04-13T20:35:18.872Z,12.95
2023-04-13T20:37:48.135Z,12.93
2023-04-13T20:40:17.834Z,12.91
2023-04-13T20:42:48.450Z,12.87
2023-04-13T20:45:18.380Z,12.85
2023-04-13T20:47:50.503Z,12.86
2023-04-13T20:50:23.860Z,12.83
2023-04-13T20:52:56.690Z,12.79
2023-04-13T20:55:26.224Z,12.72
2023-04-13T20:57:56.589Z,12.71
2023-04-13T21:00:27.972Z,12.67
2023-04-13T21:02:57.972Z,12.67
2023-04-13T21:05:27.018Z,12.64
2023-04-13T21:07:57.185Z,12.62
2023-04-13T21:10:26.158Z,12.59
2023-04-13T21:12:56.441Z,12.54
2023-04-13T21:15:25.120Z,12.50
2023-04-13T21:17:54.067Z,12.47
2023-04-13T21:20:23.936Z,12.43
2023-04-13T21:22:52.869Z,12.42
2023-04-13T21:25:21.681Z,12.37
2023-04-13T21:27:50.661Z,12.34
2023-04-13T21:30:20.994Z,12.32
2023-04-13T21:32:50.577Z,12.27
2023-04-13T21:35:19.571Z,12.23
2023-04-13T21:37:48.530Z,12.20
2023-04-13T21:40:18.376Z,12.16
2023-04-13T21:42:47.427Z,12.13
2023-04-13T21:45:16.331Z,12.11
2023-04-13T21:47:47.236Z,12.07
2023-04-13T21:50:16.069Z,12.08
2023-04-13T21:52:45.192Z,12.05
2023-04-13T21:55:18.154Z,12.02
2023-04-13T21:57:47.256Z,12.00
2023-04-13T22:00:18.041Z,11.96
2023-04-13T22:02:49.269Z,11.95
2023-04-13T22:05:18.171Z,11.91
2023-04-13T22:07:47.329Z,11.90
2023-04-13T22:10:16.014Z,11.88
2023-04-13T22:12:45.026Z,11.83
2023-04-13T22:15:13.688Z,11.80
2023-04-13T22:17:42.669Z,11.81
2023-04-13T22:20:13.512Z,11.78
2023-04-13T22:22:42.435Z,11.79
2023-04-13T22:25:11.332Z,11.78
2023-04-13T22:27:40.375Z,11.79
2023-04-13T22:30:10.561Z,11.74
2023-04-13T22:32:39.575Z,11.77
2023-04-13T22:35:09.299Z,11.72
2023-04-13T22:37:39.636Z,11.74
2023-04-13T22:40:09.819Z,11.71
2023-04-13T22:42:38.781Z,11.72
2023-04-13T22:45:09.068Z,11.70
2023-04-13T22:47:38.158Z,11.71
2023-04-13T22:50:08.558Z,11.67
2023-04-13T22:52:38.889Z,11.70
2023-04-13T22:55:08.164Z,11.65
2023-04-13T22:57:37.242Z,11.65
2023-04-13T23:00:06.978Z,11.64
2023-04-13T23:02:36.136Z,11.62
2023-04-13T23:05:05.607Z,11.62
2023-04-13T23:07:34.902Z,11.62
2023-04-13T23:10:05.737Z,11.59
2023-04-13T23:12:34.652Z,11.55
2023-04-13T23:15:03.817Z,11.57
2023-04-13T23:17:32.751Z,11.54
2023-04-13T23:20:01.556Z,11.53
2023-04-13T23:22:31.358Z,11.54
2023-04-13T23:25:00.368Z,11.51
2023-04-13T23:27:30.723Z,11.49
2023-04-13T23:29:59.401Z,11.48
2023-04-13T23:32:28.486Z,11.48
2023-04-13T23:34:57.333Z,11.47
2023-04-13T23:37:26.398Z,11.48
2023-04-13T23:39:55.457Z,11.47
2023-04-13T23:42:24.551Z,11.48
2023-04-13T23:44:54.628Z,11.49
2023-04-13T23:47:23.779Z,11.49
2023-04-13T23:49:54.180Z,11.52
2023-04-13T23:52:24.318Z,11.49
2023-04-13T23:54:53.027Z,11.50
2023-04-13T23:57:22.536Z,11.49
2023-04-13T23:59:58.172Z,11.50
